sensor_id;sensor_type;location;lat;lon;timestamp;temperature;humidity
48936;DHT22;34745;52.276;10.528;2023-06-26T00:00:13;22.80;1.00
48936;DHT22;34745;52.276;10.528;2023-06-26T00:02:40;22.70;1.00
48936;DHT22;34745;52.276;10.528;2023-06-26T00:05:07;22.70;1.00
48936;DHT22;34745;52.276;10.528;2023-06-26T00:07:34;22.70;1.00
48936;DHT22;34745;52.276;10.528;2023-06-26T00:10:02;22.60;1.00
48936;DHT22;34745;52.276;10.528;2023-06-26T00:12:29;22.60;1.00
48936;DHT22;34745;52.276;10.528;2023-06-26T00:14:57;22.60;1.00
48936;DHT22;34745;52.276;10.528;2023-06-26T00:17:25;22.50;1.00
48936;DHT22;34745;52.276;10.528;2023-06-26T00:19:52;22.40;1.00
48936;DHT22;34745;52.276;10.528;2023-06-26T00:22:21;22.40;1.00
48936;DHT22;34745;52.276;10.528;2023-06-26T00:24:48;22.40;1.00
48936;DHT22;34745;52.276;10.528;2023-06-26T00:27:15;22.40;1.00
48936;DHT22;34745;52.276;10.528;2023-06-26T00:29:42;22.40;1.00
48936;DHT22;34745;52.276;10.528;2023-06-26T00:32:09;22.40;1.00
48936;DHT22;34745;52.276;10.528;2023-06-26T00:34:37;22.30;1.00
48936;DHT22;34745;52.276;10.528;2023-06-26T00:37:04;22.30;1.00
48936;DHT22;34745;52.276;10.528;2023-06-26T00:39:32;22.30;1.00
48936;DHT22;34745;52.276;10.528;2023-06-26T00:42:00;22.30;1.00
48936;DHT22;34745;52.276;10.528;2023-06-26T00:44:27;22.30;1.00
48936;DHT22;34745;52.276;10.528;2023-06-26T00:46:54;22.30;1.00
48936;DHT22;34745;52.276;10.528;2023-06-26T00:49:22;22.20;1.00
48936;DHT22;34745;52.276;10.528;2023-06-26T00:51:50;22.20;1.00
48936;DHT22;34745;52.276;10.528;2023-06-26T00:54:17;22.20;1.00
48936;DHT22;34745;52.276;10.528;2023-06-26T00:56:47;22.20;1.00
48936;DHT22;34745;52.276;10.528;2023-06-26T00:59:15;22.20;1.00
48936;DHT22;34745;52.276;10.528;2023-06-26T01:01:42;22.20;1.00
48936;DHT22;34745;52.276;10.528;2023-06-26T01:04:09;22.10;1.00
48936;DHT22;34745;52.276;10.528;2023-06-26T01:06:46;22.10;1.00
48936;DHT22;34745;52.276;10.528;2023-06-26T01:09:18;22.10;1.00
48936;DHT22;34745;52.276;10.528;2023-06-26T01:11:46;22.10;1.00
48936;DHT22;34745;52.276;10.528;2023-06-26T01:14:13;22.00;1.00
48936;DHT22;34745;52.276;10.528;2023-06-26T01:16:41;22.10;1.00
48936;DHT22;34745;52.276;10.528;2023-06-26T01:19:19;22.00;1.00
48936;DHT22;34745;52.276;10.528;2023-06-26T01:21:58;22.00;1.00
48936;DHT22;34745;52.276;10.528;2023-06-26T01:24:33;22.00;1.00
48936;DHT22;34745;52.276;10.528;2023-06-26T01:27:02;22.00;1.00
48936;DHT22;34745;52.276;10.528;2023-06-26T01:29:30;22.00;1.00
48936;DHT22;34745;52.276;10.528;2023-06-26T01:31:59;22.00;1.00
48936;DHT22;34745;52.276;10.528;2023-06-26T01:34:27;22.00;1.00
48936;DHT22;34745;52.276;10.528;2023-06-26T01:36:54;21.90;1.00
48936;DHT22;34745;52.276;10.528;2023-06-26T01:39:21;21.90;1.00
48936;DHT22;34745;52.276;10.528;2023-06-26T01:41:49;21.90;1.00
48936;DHT22;34745;52.276;10.528;2023-06-26T01:44:26;21.80;1.00
48936;DHT22;34745;52.276;10.528;2023-06-26T01:47:01;21.80;1.00
48936;DHT22;34745;52.276;10.528;2023-06-26T01:52:29;21.60;1.00
48936;DHT22;34745;52.276;10.528;2023-06-26T01:55:03;21.60;1.00
48936;DHT22;34745;52.276;10.528;2023-06-26T01:57:31;21.60;1.00
48936;DHT22;34745;52.276;10.528;2023-06-26T02:00:01;21.60;1.00
48936;DHT22;34745;52.276;10.528;2023-06-26T02:02:29;21.60;1.00
48936;DHT22;34745;52.276;10.528;2023-06-26T02:04:56;21.60;1.00
48936;DHT22;34745;52.276;10.528;2023-06-26T02:07:23;21.60;1.00
48936;DHT22;34745;52.276;10.528;2023-06-26T02:09:50;21.50;1.00
48936;DHT22;34745;52.276;10.528;2023-06-26T02:12:17;21.50;1.00
48936;DHT22;34745;52.276;10.528;2023-06-26T02:14:44;21.50;1.00
48936;DHT22;34745;52.276;10.528;2023-06-26T02:17:13;21.60;1.00
48936;DHT22;34745;52.276;10.528;2023-06-26T02:19:40;21.70;1.00
48936;DHT22;34745;52.276;10.528;2023-06-26T02:22:15;21.70;1.00
48936;DHT22;34745;52.276;10.528;2023-06-26T02:24:42;21.70;1.00
48936;DHT22;34745;52.276;10.528;2023-06-26T02:27:10;21.60;1.00
48936;DHT22;34745;52.276;10.528;2023-06-26T02:29:38;21.70;1.00
48936;DHT22;34745;52.276;10.528;2023-06-26T02:32:06;21.70;1.00
48936;DHT22;34745;52.276;10.528;2023-06-26T02:34:35;21.70;1.00
48936;DHT22;34745;52.276;10.528;2023-06-26T02:37:02;21.60;1.00
48936;DHT22;34745;52.276;10.528;2023-06-26T02:39:30;21.50;1.00
48936;DHT22;34745;52.276;10.528;2023-06-26T02:41:57;21.50;1.00
48936;DHT22;34745;52.276;10.528;2023-06-26T02:44:24;21.40;1.00
48936;DHT22;34745;52.276;10.528;2023-06-26T02:46:51;21.50;1.00
48936;DHT22;34745;52.276;10.528;2023-06-26T02:49:18;21.60;1.00
48936;DHT22;34745;52.276;10.528;2023-06-26T02:51:50;21.60;1.00
48936;DHT22;34745;52.276;10.528;2023-06-26T02:54:17;21.60;1.00
48936;DHT22;34745;52.276;10.528;2023-06-26T02:56:44;21.60;1.00
48936;DHT22;34745;52.276;10.528;2023-06-26T02:59:14;21.60;1.00
48936;DHT22;34745;52.276;10.528;2023-06-26T03:01:41;21.50;1.00
48936;DHT22;34745;52.276;10.528;2023-06-26T03:04:08;21.50;1.00
48936;DHT22;34745;52.276;10.528;2023-06-26T03:06:37;21.60;1.00
48936;DHT22;34745;52.276;10.528;2023-06-26T03:09:05;21.50;1.00
48936;DHT22;34745;52.276;10.528;2023-06-26T03:11:32;21.50;1.00
48936;DHT22;34745;52.276;10.528;2023-06-26T03:14:00;21.50;1.00
48936;DHT22;34745;52.276;10.528;2023-06-26T03:16:26;21.50;1.00
48936;DHT22;34745;52.276;10.528;2023-06-26T03:18:54;21.50;1.00
48936;DHT22;34745;52.276;10.528;2023-06-26T03:21:21;21.40;1.00
48936;DHT22;34745;52.276;10.528;2023-06-26T03:23:48;21.40;1.00
48936;DHT22;34745;52.276;10.528;2023-06-26T03:26:16;21.40;1.00
48936;DHT22;34745;52.276;10.528;2023-06-26T03:28:44;21.40;1.00
48936;DHT22;34745;52.276;10.528;2023-06-26T03:31:10;21.50;1.00
48936;DHT22;34745;52.276;10.528;2023-06-26T03:33:38;21.40;1.00
48936;DHT22;34745;52.276;10.528;2023-06-26T03:36:05;21.30;1.00
48936;DHT22;34745;52.276;10.528;2023-06-26T03:38:32;21.30;1.00
48936;DHT22;34745;52.276;10.528;2023-06-26T03:41:00;21.40;1.00
48936;DHT22;34745;52.276;10.528;2023-06-26T03:43:28;21.40;1.00
48936;DHT22;34745;52.276;10.528;2023-06-26T03:45:55;21.40;1.00
48936;DHT22;34745;52.276;10.528;2023-06-26T03:48:22;21.40;1.00
48936;DHT22;34745;52.276;10.528;2023-06-26T03:50:50;21.40;1.00
48936;DHT22;34745;52.276;10.528;2023-06-26T03:53:17;21.40;1.00
48936;DHT22;34745;52.276;10.528;2023-06-26T03:55:44;21.50;1.00
48936;DHT22;34745;52.276;10.528;2023-06-26T03:58:11;21.50;1.00
48936;DHT22;34745;52.276;10.528;2023-06-26T04:00:40;21.50;1.00
48936;DHT22;34745;52.276;10.528;2023-06-26T04:03:07;21.60;1.00
48936;DHT22;34745;52.276;10.528;2023-06-26T04:05:34;21.60;1.00
48936;DHT22;34745;52.276;10.528;2023-06-26T04:08:03;21.60;1.00
48936;DHT22;34745;52.276;10.528;2023-06-26T04:10:31;21.70;1.00
48936;DHT22;34745;52.276;10.528;2023-06-26T04:12:58;21.70;1.00
48936;DHT22;34745;52.276;10.528;2023-06-26T04:15:25;21.70;1.00
48936;DHT22;34745;52.276;10.528;2023-06-26T04:17:54;21.70;1.00
48936;DHT22;34745;52.276;10.528;2023-06-26T04:20:22;21.60;1.00
48936;DHT22;34745;52.276;10.528;2023-06-26T04:22:50;21.60;1.00
48936;DHT22;34745;52.276;10.528;2023-06-26T04:25:18;21.60;1.00
48936;DHT22;34745;52.276;10.528;2023-06-26T04:27:45;21.60;1.00
48936;DHT22;34745;52.276;10.528;2023-06-26T04:30:13;21.60;1.00
48936;DHT22;34745;52.276;10.528;2023-06-26T04:32:40;21.60;1.00
48936;DHT22;34745;52.276;10.528;2023-06-26T04:35:08;21.60;1.00
48936;DHT22;34745;52.276;10.528;2023-06-26T04:37:40;21.60;1.00
48936;DHT22;34745;52.276;10.528;2023-06-26T04:40:08;21.60;1.00
48936;DHT22;34745;52.276;10.528;2023-06-26T04:42:36;21.70;1.00
48936;DHT22;34745;52.276;10.528;2023-06-26T04:45:04;21.70;1.00
48936;DHT22;34745;52.276;10.528;2023-06-26T04:47:30;21.70;1.00
48936;DHT22;34745;52.276;10.528;2023-06-26T04:49:58;21.80;1.00
48936;DHT22;34745;52.276;10.528;2023-06-26T04:52:26;21.90;1.00
48936;DHT22;34745;52.276;10.528;2023-06-26T04:54:53;21.80;1.00
48936;DHT22;34745;52.276;10.528;2023-06-26T04:57:20;21.80;1.00
48936;DHT22;34745;52.276;10.528;2023-06-26T04:59:47;21.90;1.00
48936;DHT22;34745;52.276;10.528;2023-06-26T05:02:14;22.00;1.00
48936;DHT22;34745;52.276;10.528;2023-06-26T05:04:42;22.00;1.00
48936;DHT22;34745;52.276;10.528;2023-06-26T05:07:09;22.00;1.00
48936;DHT22;34745;52.276;10.528;2023-06-26T05:09:38;22.20;1.00
48936;DHT22;34745;52.276;10.528;2023-06-26T05:12:05;22.10;1.00
48936;DHT22;34745;52.276;10.528;2023-06-26T05:14:32;22.20;1.00
48936;DHT22;34745;52.276;10.528;2023-06-26T05:17:00;22.30;1.00
48936;DHT22;34745;52.276;10.528;2023-06-26T05:19:27;22.30;1.00
48936;DHT22;34745;52.276;10.528;2023-06-26T05:21:55;22.40;1.00
48936;DHT22;34745;52.276;10.528;2023-06-26T05:24:23;22.40;1.00
48936;DHT22;34745;52.276;10.528;2023-06-26T05:26:52;22.40;1.00
48936;DHT22;34745;52.276;10.528;2023-06-26T05:29:20;22.50;1.00
48936;DHT22;34745;52.276;10.528;2023-06-26T05:31:49;22.60;1.00
48936;DHT22;34745;52.276;10.528;2023-06-26T05:34:18;22.60;1.00
48936;DHT22;34745;52.276;10.528;2023-06-26T05:36:47;22.80;1.00
48936;DHT22;34745;52.276;10.528;2023-06-26T05:39:17;22.80;1.00
48936;DHT22;34745;52.276;10.528;2023-06-26T05:41:45;22.90;1.00
48936;DHT22;34745;52.276;10.528;2023-06-26T05:44:13;23.00;1.00
48936;DHT22;34745;52.276;10.528;2023-06-26T05:46:40;23.00;1.00
48936;DHT22;34745;52.276;10.528;2023-06-26T05:49:07;23.20;1.00
48936;DHT22;34745;52.276;10.528;2023-06-26T05:51:36;23.30;1.00
48936;DHT22;34745;52.276;10.528;2023-06-26T05:54:03;23.30;1.00
48936;DHT22;34745;52.276;10.528;2023-06-26T05:56:31;23.40;1.00
48936;DHT22;34745;52.276;10.528;2023-06-26T05:58:59;23.40;1.00
48936;DHT22;34745;52.276;10.528;2023-06-26T06:01:29;23.30;1.00
48936;DHT22;34745;52.276;10.528;2023-06-26T06:03:56;23.40;1.00
48936;DHT22;34745;52.276;10.528;2023-06-26T06:06:24;23.50;1.00
48936;DHT22;34745;52.276;10.528;2023-06-26T06:08:51;23.60;1.00
48936;DHT22;34745;52.276;10.528;2023-06-26T06:11:18;23.60;1.00
48936;DHT22;34745;52.276;10.528;2023-06-26T06:13:45;23.70;1.00
48936;DHT22;34745;52.276;10.528;2023-06-26T06:16:13;23.70;1.00
48936;DHT22;34745;52.276;10.528;2023-06-26T06:18:41;23.80;1.00
48936;DHT22;34745;52.276;10.528;2023-06-26T06:21:08;23.80;1.00
48936;DHT22;34745;52.276;10.528;2023-06-26T06:23:35;23.90;1.00
48936;DHT22;34745;52.276;10.528;2023-06-26T06:26:02;23.90;1.00
48936;DHT22;34745;52.276;10.528;2023-06-26T06:28:30;24.00;1.00
48936;DHT22;34745;52.276;10.528;2023-06-26T06:30:57;24.10;1.00
48936;DHT22;34745;52.276;10.528;2023-06-26T06:33:24;24.20;1.00
48936;DHT22;34745;52.276;10.528;2023-06-26T06:35:52;24.30;1.00
48936;DHT22;34745;52.276;10.528;2023-06-26T06:38:19;24.40;1.00
48936;DHT22;34745;52.276;10.528;2023-06-26T06:40:46;24.40;1.00
48936;DHT22;34745;52.276;10.528;2023-06-26T06:43:13;24.50;1.00
48936;DHT22;34745;52.276;10.528;2023-06-26T06:45:40;24.50;1.00
48936;DHT22;34745;52.276;10.528;2023-06-26T06:48:07;24.50;1.00
48936;DHT22;34745;52.276;10.528;2023-06-26T06:50:34;24.60;1.00
48936;DHT22;34745;52.276;10.528;2023-06-26T06:53:03;24.70;1.00
48936;DHT22;34745;52.276;10.528;2023-06-26T06:55:30;24.70;1.00
48936;DHT22;34745;52.276;10.528;2023-06-26T06:57:57;24.80;1.00
48936;DHT22;34745;52.276;10.528;2023-06-26T07:00:24;24.80;1.00
48936;DHT22;34745;52.276;10.528;2023-06-26T07:02:53;24.80;1.00
48936;DHT22;34745;52.276;10.528;2023-06-26T07:05:20;24.90;1.00
48936;DHT22;34745;52.276;10.528;2023-06-26T07:07:47;25.00;1.00
48936;DHT22;34745;52.276;10.528;2023-06-26T07:10:15;25.10;1.00
48936;DHT22;34745;52.276;10.528;2023-06-26T07:12:43;25.20;1.00
48936;DHT22;34745;52.276;10.528;2023-06-26T07:15:11;25.20;1.00
48936;DHT22;34745;52.276;10.528;2023-06-26T07:17:38;25.10;1.00
48936;DHT22;34745;52.276;10.528;2023-06-26T07:20:07;25.00;1.00
48936;DHT22;34745;52.276;10.528;2023-06-26T07:22:35;25.00;1.00
48936;DHT22;34745;52.276;10.528;2023-06-26T07:25:03;25.20;1.00
48936;DHT22;34745;52.276;10.528;2023-06-26T07:27:32;25.30;1.00
48936;DHT22;34745;52.276;10.528;2023-06-26T07:30:00;25.50;1.00
48936;DHT22;34745;52.276;10.528;2023-06-26T07:32:27;25.50;1.00
48936;DHT22;34745;52.276;10.528;2023-06-26T07:34:54;25.60;1.00
48936;DHT22;34745;52.276;10.528;2023-06-26T07:37:22;25.70;1.00
48936;DHT22;34745;52.276;10.528;2023-06-26T07:39:49;25.90;1.00
48936;DHT22;34745;52.276;10.528;2023-06-26T07:42:16;26.10;1.00
48936;DHT22;34745;52.276;10.528;2023-06-26T07:44:45;26.10;1.00
48936;DHT22;34745;52.276;10.528;2023-06-26T07:47:12;26.30;1.00
48936;DHT22;34745;52.276;10.528;2023-06-26T07:49:40;26.40;1.00
48936;DHT22;34745;52.276;10.528;2023-06-26T07:52:07;26.50;1.00
48936;DHT22;34745;52.276;10.528;2023-06-26T07:54:37;26.60;1.00
48936;DHT22;34745;52.276;10.528;2023-06-26T07:57:05;26.70;1.00
48936;DHT22;34745;52.276;10.528;2023-06-26T07:59:35;26.80;1.00
48936;DHT22;34745;52.276;10.528;2023-06-26T08:02:04;26.90;1.00
48936;DHT22;34745;52.276;10.528;2023-06-26T08:04:31;26.90;1.00
48936;DHT22;34745;52.276;10.528;2023-06-26T08:07:00;26.90;1.00
48936;DHT22;34745;52.276;10.528;2023-06-26T08:09:29;27.00;1.00
48936;DHT22;34745;52.276;10.528;2023-06-26T08:11:57;26.80;1.00
48936;DHT22;34745;52.276;10.528;2023-06-26T08:14:24;26.60;1.00
48936;DHT22;34745;52.276;10.528;2023-06-26T08:16:51;26.60;1.00
48936;DHT22;34745;52.276;10.528;2023-06-26T08:19:20;26.70;1.00
48936;DHT22;34745;52.276;10.528;2023-06-26T08:21:47;26.80;1.00
48936;DHT22;34745;52.276;10.528;2023-06-26T08:24:14;26.80;1.00
48936;DHT22;34745;52.276;10.528;2023-06-26T08:26:46;26.90;1.00
48936;DHT22;34745;52.276;10.528;2023-06-26T08:29:14;26.90;1.00
48936;DHT22;34745;52.276;10.528;2023-06-26T08:31:42;27.00;1.00
48936;DHT22;34745;52.276;10.528;2023-06-26T08:34:10;27.00;1.00
48936;DHT22;34745;52.276;10.528;2023-06-26T08:36:39;27.10;1.00
48936;DHT22;34745;52.276;10.528;2023-06-26T08:39:06;27.10;1.00
48936;DHT22;34745;52.276;10.528;2023-06-26T08:41:35;27.10;1.00
48936;DHT22;34745;52.276;10.528;2023-06-26T08:44:03;27.10;1.00
48936;DHT22;34745;52.276;10.528;2023-06-26T08:46:31;27.00;1.00
48936;DHT22;34745;52.276;10.528;2023-06-26T08:49:01;27.00;1.00
48936;DHT22;34745;52.276;10.528;2023-06-26T08:51:32;27.10;1.00
48936;DHT22;34745;52.276;10.528;2023-06-26T08:54:06;26.90;1.00
48936;DHT22;34745;52.276;10.528;2023-06-26T08:56:37;26.90;1.00
48936;DHT22;34745;52.276;10.528;2023-06-26T08:59:05;26.90;1.00
48936;DHT22;34745;52.276;10.528;2023-06-26T09:01:33;27.00;1.00
48936;DHT22;34745;52.276;10.528;2023-06-26T09:04:00;27.10;1.00
48936;DHT22;34745;52.276;10.528;2023-06-26T09:06:27;27.10;1.00
48936;DHT22;34745;52.276;10.528;2023-06-26T09:08:55;27.10;1.00
48936;DHT22;34745;52.276;10.528;2023-06-26T09:11:23;27.00;1.00
48936;DHT22;34745;52.276;10.528;2023-06-26T09:13:51;26.90;1.00
48936;DHT22;34745;52.276;10.528;2023-06-26T09:16:24;26.90;1.00
48936;DHT22;34745;52.276;10.528;2023-06-26T09:18:52;27.00;1.00
48936;DHT22;34745;52.276;10.528;2023-06-26T09:21:19;27.00;1.00
48936;DHT22;34745;52.276;10.528;2023-06-26T09:23:49;27.10;1.00
48936;DHT22;34745;52.276;10.528;2023-06-26T09:26:16;27.20;1.00
48936;DHT22;34745;52.276;10.528;2023-06-26T09:28:45;27.30;1.00
48936;DHT22;34745;52.276;10.528;2023-06-26T09:31:12;27.20;1.00
48936;DHT22;34745;52.276;10.528;2023-06-26T09:33:45;27.30;1.00
48936;DHT22;34745;52.276;10.528;2023-06-26T09:36:19;27.50;1.00
48936;DHT22;34745;52.276;10.528;2023-06-26T09:38:46;27.50;1.00
48936;DHT22;34745;52.276;10.528;2023-06-26T09:41:15;27.60;1.00
48936;DHT22;34745;52.276;10.528;2023-06-26T09:43:47;27.70;1.00
48936;DHT22;34745;52.276;10.528;2023-06-26T09:46:15;27.70;1.00
48936;DHT22;34745;52.276;10.528;2023-06-26T09:48:43;27.70;1.00
48936;DHT22;34745;52.276;10.528;2023-06-26T09:51:10;27.60;1.00
48936;DHT22;34745;52.276;10.528;2023-06-26T09:53:42;27.50;1.00
48936;DHT22;34745;52.276;10.528;2023-06-26T09:56:15;27.40;1.00
48936;DHT22;34745;52.276;10.528;2023-06-26T09:58:44;27.30;1.00
48936;DHT22;34745;52.276;10.528;2023-06-26T10:01:13;27.50;1.00
48936;DHT22;34745;52.276;10.528;2023-06-26T10:03:40;27.60;1.00
48936;DHT22;34745;52.276;10.528;2023-06-26T10:06:09;27.70;1.00
48936;DHT22;34745;52.276;10.528;2023-06-26T10:08:38;27.70;1.00
48936;DHT22;34745;52.276;10.528;2023-06-26T10:11:07;27.70;1.00
48936;DHT22;34745;52.276;10.528;2023-06-26T10:13:38;27.70;1.00
48936;DHT22;34745;52.276;10.528;2023-06-26T10:16:07;27.80;1.00
48936;DHT22;34745;52.276;10.528;2023-06-26T10:18:38;27.70;1.00
48936;DHT22;34745;52.276;10.528;2023-06-26T10:21:06;27.80;1.00
48936;DHT22;34745;52.276;10.528;2023-06-26T10:23:36;27.80;1.00
48936;DHT22;34745;52.276;10.528;2023-06-26T10:26:07;27.90;1.00
48936;DHT22;34745;52.276;10.528;2023-06-26T10:28:35;27.90;1.00
48936;DHT22;34745;52.276;10.528;2023-06-26T10:31:05;27.80;1.00
48936;DHT22;34745;52.276;10.528;2023-06-26T10:33:34;27.70;1.00
48936;DHT22;34745;52.276;10.528;2023-06-26T10:36:17;27.80;1.00
48936;DHT22;34745;52.276;10.528;2023-06-26T10:38:49;27.90;1.00
48936;DHT22;34745;52.276;10.528;2023-06-26T10:41:20;27.80;1.00
48936;DHT22;34745;52.276;10.528;2023-06-26T10:43:59;27.70;1.00
48936;DHT22;34745;52.276;10.528;2023-06-26T10:46:33;27.70;1.00
48936;DHT22;34745;52.276;10.528;2023-06-26T10:49:01;27.60;1.00
48936;DHT22;34745;52.276;10.528;2023-06-26T10:51:31;27.40;1.00
48936;DHT22;34745;52.276;10.528;2023-06-26T10:54:00;27.40;1.00
48936;DHT22;34745;52.276;10.528;2023-06-26T10:56:44;27.30;1.00
48936;DHT22;34745;52.276;10.528;2023-06-26T10:59:17;27.30;1.00
48936;DHT22;34745;52.276;10.528;2023-06-26T11:01:45;27.00;1.00
48936;DHT22;34745;52.276;10.528;2023-06-26T11:04:13;27.10;1.00
48936;DHT22;34745;52.276;10.528;2023-06-26T11:06:46;27.20;1.00
48936;DHT22;34745;52.276;10.528;2023-06-26T11:09:18;27.00;1.00
48936;DHT22;34745;52.276;10.528;2023-06-26T11:11:59;27.00;1.00
48936;DHT22;34745;52.276;10.528;2023-06-26T11:14:32;26.90;1.00
48936;DHT22;34745;52.276;10.528;2023-06-26T11:17:02;26.90;1.00
48936;DHT22;34745;52.276;10.528;2023-06-26T11:19:29;26.80;1.00
48936;DHT22;34745;52.276;10.528;2023-06-26T11:22:01;26.80;1.00
48936;DHT22;34745;52.276;10.528;2023-06-26T11:24:29;26.60;1.00
48936;DHT22;34745;52.276;10.528;2023-06-26T11:27:02;26.50;1.00
48936;DHT22;34745;52.276;10.528;2023-06-26T11:29:33;26.50;1.00
48936;DHT22;34745;52.276;10.528;2023-06-26T11:32:03;26.60;1.00
48936;DHT22;34745;52.276;10.528;2023-06-26T11:34:33;26.50;1.00
48936;DHT22;34745;52.276;10.528;2023-06-26T11:37:02;26.20;1.00
48936;DHT22;34745;52.276;10.528;2023-06-26T11:39:29;26.10;1.00
48936;DHT22;34745;52.276;10.528;2023-06-26T11:41:57;26.20;1.00
48936;DHT22;34745;52.276;10.528;2023-06-26T11:44:24;25.80;1.00
48936;DHT22;34745;52.276;10.528;2023-06-26T11:46:52;25.30;1.00
48936;DHT22;34745;52.276;10.528;2023-06-26T11:49:22;25.30;1.00
48936;DHT22;34745;52.276;10.528;2023-06-26T11:51:49;25.20;1.00
48936;DHT22;34745;52.276;10.528;2023-06-26T11:54:24;25.10;1.00
48936;DHT22;34745;52.276;10.528;2023-06-26T11:56:56;24.90;1.00
48936;DHT22;34745;52.276;10.528;2023-06-26T11:59:26;24.70;1.00
48936;DHT22;34745;52.276;10.528;2023-06-26T12:01:58;24.40;1.00
48936;DHT22;34745;52.276;10.528;2023-06-26T12:04:25;24.30;1.00
48936;DHT22;34745;52.276;10.528;2023-06-26T12:06:53;24.10;1.00
48936;DHT22;34745;52.276;10.528;2023-06-26T12:09:26;23.90;1.00
48936;DHT22;34745;52.276;10.528;2023-06-26T12:11:55;23.70;1.00
48936;DHT22;34745;52.276;10.528;2023-06-26T12:14:25;23.50;1.00
48936;DHT22;34745;52.276;10.528;2023-06-26T12:16:52;23.60;1.00
48936;DHT22;34745;52.276;10.528;2023-06-26T12:19:25;23.60;1.00
48936;DHT22;34745;52.276;10.528;2023-06-26T12:21:53;23.50;1.00
48936;DHT22;34745;52.276;10.528;2023-06-26T12:24:25;23.50;1.00
48936;DHT22;34745;52.276;10.528;2023-06-26T12:26:53;23.60;1.00
48936;DHT22;34745;52.276;10.528;2023-06-26T12:29:31;23.60;1.00
48936;DHT22;34745;52.276;10.528;2023-06-26T12:31:59;23.70;1.00
48936;DHT22;34745;52.276;10.528;2023-06-26T12:34:29;23.80;1.00
48936;DHT22;34745;52.276;10.528;2023-06-26T12:37:00;23.90;1.00
48936;DHT22;34745;52.276;10.528;2023-06-26T12:39:29;23.80;1.00
48936;DHT22;34745;52.276;10.528;2023-06-26T12:41:59;23.70;1.00
48936;DHT22;34745;52.276;10.528;2023-06-26T12:44:31;23.60;1.00
48936;DHT22;34745;52.276;10.528;2023-06-26T12:47:00;23.70;1.00
48936;DHT22;34745;52.276;10.528;2023-06-26T12:49:31;23.80;1.00
48936;DHT22;34745;52.276;10.528;2023-06-26T12:51:59;24.00;1.00
48936;DHT22;34745;52.276;10.528;2023-06-26T12:54:28;24.30;1.00
48936;DHT22;34745;52.276;10.528;2023-06-26T12:56:55;24.50;1.00
48936;DHT22;34745;52.276;10.528;2023-06-26T12:59:23;24.60;1.00
48936;DHT22;34745;52.276;10.528;2023-06-26T13:01:50;24.80;1.00
48936;DHT22;34745;52.276;10.528;2023-06-26T13:04:17;25.00;1.00
48936;DHT22;34745;52.276;10.528;2023-06-26T13:06:45;25.40;1.00
48936;DHT22;34745;52.276;10.528;2023-06-26T13:09:12;26.00;1.00
48936;DHT22;34745;52.276;10.528;2023-06-26T13:11:40;26.40;1.00
48936;DHT22;34745;52.276;10.528;2023-06-26T13:14:08;26.00;1.00
48936;DHT22;34745;52.276;10.528;2023-06-26T13:16:38;25.70;1.00
48936;DHT22;34745;52.276;10.528;2023-06-26T13:19:05;24.90;1.00
48936;DHT22;34745;52.276;10.528;2023-06-26T13:21:33;24.50;1.00
48936;DHT22;34745;52.276;10.528;2023-06-26T13:24:00;24.30;1.00
48936;DHT22;34745;52.276;10.528;2023-06-26T13:26:27;24.30;1.00
48936;DHT22;34745;52.276;10.528;2023-06-26T13:29:00;24.50;1.00
48936;DHT22;34745;52.276;10.528;2023-06-26T13:31:27;24.80;1.00
48936;DHT22;34745;52.276;10.528;2023-06-26T13:33:58;25.10;1.00
48936;DHT22;34745;52.276;10.528;2023-06-26T13:36:26;25.50;1.00
48936;DHT22;34745;52.276;10.528;2023-06-26T13:38:53;25.80;1.00
48936;DHT22;34745;52.276;10.528;2023-06-26T13:41:24;26.20;1.00
48936;DHT22;34745;52.276;10.528;2023-06-26T13:43:51;26.00;1.00
48936;DHT22;34745;52.276;10.528;2023-06-26T13:46:22;25.60;1.00
48936;DHT22;34745;52.276;10.528;2023-06-26T13:48:49;25.50;1.00
48936;DHT22;34745;52.276;10.528;2023-06-26T13:51:16;25.10;1.00
48936;DHT22;34745;52.276;10.528;2023-06-26T13:53:43;25.40;1.00
48936;DHT22;34745;52.276;10.528;2023-06-26T13:56:10;25.10;1.00
48936;DHT22;34745;52.276;10.528;2023-06-26T13:58:37;25.40;1.00
48936;DHT22;34745;52.276;10.528;2023-06-26T14:01:05;25.60;1.00
48936;DHT22;34745;52.276;10.528;2023-06-26T14:03:33;25.70;1.00
48936;DHT22;34745;52.276;10.528;2023-06-26T14:06:01;25.80;1.00
48936;DHT22;34745;52.276;10.528;2023-06-26T14:08:28;25.80;1.00
48936;DHT22;34745;52.276;10.528;2023-06-26T14:10:54;25.60;1.00
48936;DHT22;34745;52.276;10.528;2023-06-26T14:13:21;26.10;1.00
48936;DHT22;34745;52.276;10.528;2023-06-26T14:15:50;26.30;1.00
48936;DHT22;34745;52.276;10.528;2023-06-26T14:18:20;26.30;1.00
48936;DHT22;34745;52.276;10.528;2023-06-26T14:20:52;25.70;1.00
48936;DHT22;34745;52.276;10.528;2023-06-26T14:23:20;25.60;1.00
48936;DHT22;34745;52.276;10.528;2023-06-26T14:25:47;25.40;1.00
48936;DHT22;34745;52.276;10.528;2023-06-26T14:28:15;25.30;1.00
48936;DHT22;34745;52.276;10.528;2023-06-26T14:30:42;25.10;1.00
48936;DHT22;34745;52.276;10.528;2023-06-26T14:33:10;24.80;1.00
48936;DHT22;34745;52.276;10.528;2023-06-26T14:35:37;24.70;1.00
48936;DHT22;34745;52.276;10.528;2023-06-26T14:38:05;24.80;1.00
48936;DHT22;34745;52.276;10.528;2023-06-26T14:40:33;25.10;1.00
48936;DHT22;34745;52.276;10.528;2023-06-26T14:43:00;25.60;1.00
48936;DHT22;34745;52.276;10.528;2023-06-26T14:45:28;26.10;1.00
48936;DHT22;34745;52.276;10.528;2023-06-26T14:47:55;26.70;1.00
48936;DHT22;34745;52.276;10.528;2023-06-26T14:50:23;27.40;1.00
48936;DHT22;34745;52.276;10.528;2023-06-26T14:52:50;27.40;1.00
48936;DHT22;34745;52.276;10.528;2023-06-26T14:55:19;27.10;1.00
48936;DHT22;34745;52.276;10.528;2023-06-26T14:57:46;26.60;1.00
48936;DHT22;34745;52.276;10.528;2023-06-26T15:00:13;26.10;1.00
48936;DHT22;34745;52.276;10.528;2023-06-26T15:02:41;25.80;1.00
48936;DHT22;34745;52.276;10.528;2023-06-26T15:05:08;25.60;1.00
48936;DHT22;34745;52.276;10.528;2023-06-26T15:07:36;26.10;1.00
48936;DHT22;34745;52.276;10.528;2023-06-26T15:10:03;26.60;1.00
48936;DHT22;34745;52.276;10.528;2023-06-26T15:12:34;27.00;1.40
48936;DHT22;34745;52.276;10.528;2023-06-26T15:15:01;27.10;1.00
48936;DHT22;34745;52.276;10.528;2023-06-26T15:17:28;27.30;1.00
48936;DHT22;34745;52.276;10.528;2023-06-26T15:19:55;26.60;1.00
48936;DHT22;34745;52.276;10.528;2023-06-26T15:22:26;26.60;1.00
48936;DHT22;34745;52.276;10.528;2023-06-26T15:24:53;26.90;1.00
48936;DHT22;34745;52.276;10.528;2023-06-26T15:27:21;26.60;1.00
48936;DHT22;34745;52.276;10.528;2023-06-26T15:29:52;25.90;1.00
48936;DHT22;34745;52.276;10.528;2023-06-26T15:32:19;25.60;1.00
48936;DHT22;34745;52.276;10.528;2023-06-26T15:34:47;25.90;1.00
48936;DHT22;34745;52.276;10.528;2023-06-26T15:37:14;26.80;1.00
48936;DHT22;34745;52.276;10.528;2023-06-26T15:39:41;26.90;1.40